Time;durP1;ratioP1;P1;durP2;ratioP2;P2;SDS_P1;SDS_P2;PMS_P1;PMS_P2;Temp;Humidity;BMP_temperature;BMP_pressure;BME280_temperature;BME280_humidity;BME280_pressure;Samples;Min_cycle;Max_cycle;Signal;HPM_P1;HPM_P2
2023/01/28 00:00:16;;;;;;;0.60;0.60;;;;;;;4.22;100.00;98646.31;5053138;28;20677;-68
2023/01/28 00:02:43;;;;;;;0.50;0.50;;;;;;;4.23;100.00;98645.44;5050571;28;20203;-67
2023/01/28 00:05:11;;;;;;;0.50;0.50;;;;;;;4.21;100.00;98644.66;5053412;28;20200;-68
2023/01/28 00:07:38;;;;;;;0.50;0.50;;;;;;;4.17;100.00;98650.63;5053096;28;20657;-67
2023/01/28 00:10:06;;;;;;;0.50;0.50;;;;;;;4.19;100.00;98653.16;5052522;28;20581;-68
2023/01/28 00:12:33;;;;;;;0.77;0.77;;;;;;;4.17;100.00;98655.69;5053006;28;20664;-68
2023/01/28 00:14:59;;;;;;;0.60;0.60;;;;;;;4.18;100.00;98657.38;5052960;28;20201;-68
2023/01/28 00:17:26;;;;;;;0.50;0.50;;;;;;;4.15;100.00;98651.50;5050145;28;20220;-68
2023/01/28 00:19:53;;;;;;;0.50;0.50;;;;;;;4.12;100.00;98652.41;5052788;28;20200;-67
2023/01/28 00:22:21;;;;;;;0.60;0.60;;;;;;;4.17;100.00;98660.78;5051718;28;20189;-68
2023/01/28 00:24:48;;;;;;;0.50;0.50;;;;;;;4.12;100.00;98667.63;5052724;28;20665;-68
2023/01/28 00:27:15;;;;;;;0.53;0.53;;;;;;;4.16;100.00;98669.25;5052825;28;20197;-68
2023/01/28 00:29:42;;;;;;;0.80;0.80;;;;;;;4.10;100.00;98673.59;5052410;28;20200;-68
2023/01/28 00:32:09;;;;;;;0.50;0.50;;;;;;;4.07;100.00;98669.38;5049884;28;20216;-68
2023/01/28 00:34:36;;;;;;;0.50;0.50;;;;;;;4.00;100.00;98667.00;5048334;28;20205;-68
2023/01/28 00:37:03;;;;;;;0.60;0.60;;;;;;;4.05;100.00;98677.88;5052275;28;20208;-67
2023/01/28 00:39:31;;;;;;;0.60;0.60;;;;;;;4.03;100.00;98693.13;5052765;28;20201;-68
2023/01/28 00:41:58;;;;;;;0.40;0.40;;;;;;;4.00;100.00;98688.13;5052478;28;20915;-66
2023/01/28 00:44:24;;;;;;;0.60;0.60;;;;;;;3.99;100.00;98685.59;5047852;28;20262;-68
2023/01/28 00:46:51;;;;;;;0.50;0.50;;;;;;;4.01;100.00;98689.78;5052625;28;20743;-68
2023/01/28 00:49:18;;;;;;;0.50;0.50;;;;;;;4.03;100.00;98703.28;5052173;28;20208;-68
2023/01/28 00:51:45;;;;;;;0.60;0.60;;;;;;;3.96;100.00;98701.69;5052337;28;20207;-68
2023/01/28 00:54:12;;;;;;;0.50;0.50;;;;;;;4.05;100.00;98701.53;5052063;28;20197;-68
2023/01/28 00:56:40;;;;;;;0.50;0.50;;;;;;;4.02;100.00;98701.59;5051647;28;20200;-68
2023/01/28 00:59:07;;;;;;;0.70;0.70;;;;;;;4.03;100.00;98708.34;5048564;28;20266;-67
2023/01/28 01:01:34;;;;;;;0.60;0.60;;;;;;;4.01;100.00;98710.06;5052221;28;20196;-68
2023/01/28 01:04:02;;;;;;;0.70;0.70;;;;;;;3.99;100.00;98700.81;5052139;28;20225;-68
2023/01/28 01:06:31;;;;;;;0.50;0.50;;;;;;;4.04;100.00;98714.28;5050770;28;20201;-68
2023/01/28 01:08:57;;;;;;;0.60;0.60;;;;;;;4.02;100.00;98714.28;5051905;28;20201;-68
2023/01/28 01:11:24;;;;;;;0.60;0.60;;;;;;;4.04;100.00;98710.00;5051686;28;20200;-68
2023/01/28 01:13:55;;;;;;;0.60;0.60;;;;;;;4.08;100.00;98718.41;5052099;28;20630;-68
2023/01/28 01:16:23;;;;;;;0.60;0.60;;;;;;;4.09;100.00;98718.41;5051821;28;20197;-68
2023/01/28 01:18:51;;;;;;;0.60;0.60;;;;;;;4.06;100.00;98722.69;5051135;28;20208;-68
2023/01/28 01:21:20;;;;;;;0.53;0.53;;;;;;;4.03;100.00;98718.50;5049264;28;20207;-66
2023/01/28 01:23:47;;;;;;;0.40;0.40;;;;;;;4.09;100.00;98718.41;5051661;28;20258;-68
2023/01/28 01:26:14;;;;;;;0.50;0.50;;;;;;;4.08;100.00;98714.19;5052005;28;20266;-68
2023/01/28 01:28:41;;;;;;;0.60;0.60;;;;;;;3.93;100.00;98691.59;5050505;28;20615;-68
2023/01/28 01:31:13;;;;;;;0.80;0.80;;;;;;;3.97;100.00;98712.69;5050705;28;20196;-68
2023/01/28 01:33:40;;;;;;;0.60;0.60;;;;;;;4.05;100.00;98716.75;5051370;28;20295;-68
2023/01/28 01:36:09;;;;;;;0.50;0.50;;;;;;;4.03;100.00;98723.56;5051468;28;20757;-68
2023/01/28 01:38:36;;;;;;;0.50;0.50;;;;;;;4.07;100.00;98729.44;5050704;28;20216;-67
2023/01/28 01:41:04;;;;;;;0.60;0.60;;;;;;;4.05;100.00;98721.84;5051601;28;20197;-68
2023/01/28 01:43:48;;;;;;;0.60;0.60;;;;;;;4.03;100.00;98728.66;5047955;28;20703;-66
2023/01/28 01:46:20;;;;;;;0.70;0.70;;;;;;;4.05;100.00;98729.44;5051309;28;20219;-68
2023/01/28 01:48:48;;;;;;;0.50;0.50;;;;;;;4.03;100.00;98728.66;5051310;28;20766;-68
2023/01/28 01:51:18;;;;;;;0.57;0.57;;;;;;;4.09;100.00;98728.53;5051245;28;20615;-67
2023/01/28 01:53:48;;;;;;;0.57;0.57;;;;;;;4.10;100.00;98742.88;5051060;28;20204;-67
2023/01/28 01:56:17;;;;;;;0.63;0.63;;;;;;;4.10;100.00;98740.34;5049544;28;20711;-67
2023/01/28 01:58:48;;;;;;;0.63;0.63;;;;;;;4.11;100.00;98742.03;5048294;28;20213;-67
2023/01/28 02:01:19;;;;;;;0.40;0.40;;;;;;;4.13;100.00;98745.41;5049406;28;20215;-68
2023/01/28 02:03:53;;;;;;;0.60;0.60;;;;;;;4.05;100.00;98739.59;5048813;28;20224;-67
2023/01/28 02:06:23;;;;;;;0.60;0.60;;;;;;;4.18;100.00;98747.84;5050078;28;20200;-68
2023/01/28 02:08:49;;;;;;;0.60;0.60;;;;;;;4.14;100.00;98751.28;5050000;28;20197;-67
2023/01/28 02:11:18;;;;;;;0.60;0.60;;;;;;;4.03;100.00;98736.25;5049778;28;20204;-68
2023/01/28 02:13:49;;;;;;;0.53;0.53;;;;;;;4.14;100.00;98756.34;5050871;28;20197;-67
2023/01/28 02:16:18;;;;;;;0.50;0.50;;;;;;;4.13;100.00;98760.63;5050441;28;20657;-68
2023/01/28 02:18:45;;;;;;;0.47;0.47;;;;;;;4.14;100.00;98757.19;5049861;28;20213;-67
2023/01/28 02:21:44;;;;;;;0.50;0.50;;;;;;;4.13;100.00;98765.69;5050376;28;20197;-68
2023/01/28 02:24:40;;;;;;;0.60;0.60;;;;;;;4.14;100.00;98767.34;5050832;28;20281;-68
2023/01/28 02:27:20;;;;;;;0.70;0.70;;;;;;;4.10;100.00;98770.78;5050669;28;20205;-68
2023/01/28 02:29:57;;;;;;;0.50;0.50;;;;;;;4.15;100.00;98769.03;5049916;28;20252;-67
2023/01/28 02:32:31;;;;;;;0.50;0.50;;;;;;;4.15;100.00;98763.97;5050431;28;20196;-68
2023/01/28 02:35:06;;;;;;;0.50;0.50;;;;;;;4.17;100.00;98767.28;5050445;28;20201;-67
2023/01/28 02:37:38;;;;;;;0.50;0.50;;;;;;;4.09;100.00;98764.06;5050317;28;20200;-68
2023/01/28 02:40:11;;;;;;;0.87;0.87;;;;;;;4.03;100.00;98754.00;5050128;28;20270;-67
2023/01/28 02:42:39;;;;;;;0.50;0.50;;;;;;;4.06;100.00;98759.03;5049865;28;20197;-68
2023/01/28 02:45:16;;;;;;;0.60;0.60;;;;;;;4.10;100.00;98770.78;5050589;28;20568;-67
2023/01/28 02:47:57;;;;;;;0.60;0.60;;;;;;;4.18;100.00;98773.22;5050326;28;20192;-68
2023/01/28 02:50:35;;;;;;;0.50;0.50;;;;;;;4.16;100.00;98780.88;5050066;28;20688;-68
2023/01/28 02:56:03;;;;;;;0.70;0.70;;;;;;;4.13;100.00;98785.97;5050102;28;20239;-68
2023/01/28 02:58:37;;;;;;;0.70;0.70;;;;;;;4.05;100.00;98767.47;5050008;28;20219;-68
2023/01/28 03:01:14;;;;;;;0.40;0.40;;;;;;;4.17;100.00;98785.06;5049996;28;20200;-68
2023/01/28 03:03:50;;;;;;;0.50;0.50;;;;;;;4.11;100.00;98782.59;5050125;28;20668;-68
2023/01/28 03:06:21;;;;;;;0.60;0.60;;;;;;;4.16;100.00;98790.16;5049626;28;20281;-67
2023/01/28 03:36:52;;;;;;;0.50;0.50;;;;;;;3.90;100.00;98803.19;5053910;28;20208;-67
2023/01/28 03:39:22;;;;;;;0.50;0.50;;;;;;;3.92;100.00;98803.16;5053751;28;20231;-67
2023/01/28 03:42:04;;;;;;;0.50;0.50;;;;;;;3.84;100.00;98800.75;5053566;28;20200;-68
2023/01/28 03:44:50;;;;;;;0.50;0.50;;;;;;;3.87;100.00;98805.78;5053370;28;20196;-67
2023/01/28 03:47:18;;;;;;;0.60;0.60;;;;;;;3.79;100.00;98787.28;5053536;28;20609;-68
2023/01/28 03:49:49;;;;;;;0.60;0.60;;;;;;;3.86;100.00;98801.56;5052273;28;20649;-67
2023/01/28 03:52:17;;;;;;;0.50;0.50;;;;;;;3.87;100.00;98808.31;5052818;28;20742;-67
2023/01/28 03:54:46;;;;;;;0.67;0.67;;;;;;;3.82;100.00;98810.06;5049997;28;20205;-67
2023/01/28 03:57:14;;;;;;;0.50;0.50;;;;;;;3.84;100.00;98815.13;5053355;28;20300;-68
2023/01/28 03:59:41;;;;;;;0.57;0.57;;;;;;;3.80;100.00;98809.25;5052900;28;20680;-65
2023/01/28 04:02:09;;;;;;;0.50;0.50;;;;;;;3.85;100.00;98820.16;5053270;28;20615;-67
2023/01/28 04:04:36;;;;;;;0.50;0.50;;;;;;;3.84;100.00;98826.09;5053077;28;20256;-68
2023/01/28 04:07:07;;;;;;;0.57;0.57;;;;;;;3.88;100.00;98825.19;5053051;28;20250;-67
2023/01/28 04:09:34;;;;;;;0.50;0.50;;;;;;;3.85;100.00;98830.28;5053036;28;20193;-67
2023/01/28 04:12:01;;;;;;;0.60;0.60;;;;;;;3.85;100.00;98829.44;5053013;28;20204;-68
2023/01/28 04:14:27;;;;;;;0.53;0.53;;;;;;;3.86;100.00;98824.38;5052958;28;20196;-67
2023/01/28 04:16:54;;;;;;;0.60;0.60;;;;;;;3.85;100.00;98825.22;5052682;28;20209;-67
2023/01/28 04:19:21;;;;;;;0.60;0.60;;;;;;;3.84;100.00;98828.63;5052820;28;20227;-68
2023/01/28 04:21:49;;;;;;;0.60;0.60;;;;;;;3.83;100.00;98832.03;5052729;28;20200;-67
2023/01/28 04:24:17;;;;;;;0.50;0.50;;;;;;;3.86;100.00;98831.13;5052834;28;20208;-68
2023/01/28 04:26:44;;;;;;;0.60;0.60;;;;;;;3.83;100.00;98826.94;5052998;28;20199;-67
2023/01/28 04:29:11;;;;;;;0.70;0.70;;;;;;;3.82;100.00;98835.41;5052312;28;20201;-68
2023/01/28 04:31:38;;;;;;;0.60;0.60;;;;;;;3.77;100.00;98821.97;5052197;28;20209;-67
2023/01/28 04:34:04;;;;;;;0.60;0.60;;;;;;;3.78;100.00;98833.75;5051522;28;20262;-67
2023/01/28 04:36:31;;;;;;;0.57;0.57;;;;;;;3.74;100.00;98831.28;5052706;28;20216;-67
2023/01/28 04:38:58;;;;;;;0.70;0.70;;;;;;;3.72;100.00;98833.03;5052586;28;20696;-67
2023/01/28 04:41:26;;;;;;;0.57;0.57;;;;;;;3.69;100.00;98838.94;5052619;28;20266;-67
2023/01/28 04:43:53;;;;;;;0.50;0.50;;;;;;;3.64;100.00;98838.16;5052348;28;20669;-68
2023/01/28 04:46:20;;;;;;;0.60;0.60;;;;;;;3.58;100.00;98838.25;5052346;28;20205;-67
2023/01/28 04:48:46;;;;;;;0.50;0.50;;;;;;;3.63;100.00;98841.56;5052516;28;20667;-68
2023/01/28 04:51:13;;;;;;;1.07;1.07;;;;;;;3.61;100.00;98846.66;5049186;28;20193;-67
2023/01/28 04:53:40;;;;;;;0.50;0.50;;;;;;;3.56;100.00;98857.66;5051713;28;20668;-67
2023/01/28 04:56:07;;;;;;;0.60;0.60;;;;;;;3.56;100.00;98857.66;5047446;28;20207;-67
2023/01/28 04:58:35;;;;;;;0.60;0.60;;;;;;;3.54;100.00;98860.25;5050529;28;20229;-67
2023/01/28 05:01:02;;;;;;;0.57;0.57;;;;;;;3.55;100.00;98856.00;5052043;28;20197;-67
2023/01/28 05:03:29;;;;;;;0.60;0.60;;;;;;;3.52;100.00;98871.25;5050502;28;20722;-68
2023/01/28 05:05:56;;;;;;;0.60;0.60;;;;;;;3.50;100.00;98871.25;5051966;28;20193;-67
2023/01/28 05:08:23;;;;;;;0.50;0.50;;;;;;;3.53;100.00;98867.84;5051217;28;20200;-67
2023/01/28 05:10:49;;;;;;;0.50;0.50;;;;;;;3.54;100.00;98880.50;5051758;28;20209;-68
2023/01/28 05:13:16;;;;;;;0.50;0.50;;;;;;;3.50;100.00;98872.94;5052045;28;20196;-67
2023/01/28 05:15:44;;;;;;;0.50;0.50;;;;;;;3.51;100.00;98884.75;5050660;28;20208;-67
2023/01/28 05:18:11;;;;;;;0.50;0.50;;;;;;;3.50;100.00;98883.06;5049199;28;20246;-68
2023/01/28 05:20:37;;;;;;;0.60;0.60;;;;;;;3.54;100.00;98884.72;5051856;28;20350;-67
2023/01/28 05:23:04;;;;;;;0.53;0.53;;;;;;;3.52;100.00;98887.25;5051712;28;20205;-67
2023/01/28 05:25:31;;;;;;;0.60;0.60;;;;;;;3.51;100.00;98882.22;5051598;28;20204;-67
2023/01/28 05:27:58;;;;;;;0.60;0.60;;;;;;;3.53;100.00;98886.44;5049057;28;20205;-67
2023/01/28 05:30:25;;;;;;;0.60;0.60;;;;;;;3.49;100.00;98884.75;5051613;28;20576;-67
2023/01/28 05:32:56;;;;;;;0.57;0.57;;;;;;;3.54;100.00;98892.34;5051700;28;20205;-67
2023/01/28 05:35:23;;;;;;;0.60;0.60;;;;;;;3.51;100.00;98894.91;5049306;28;20668;-67
2023/01/28 05:37:50;;;;;;;0.50;0.50;;;;;;;3.48;100.00;98894.94;5051910;28;20548;-67
2023/01/28 05:40:17;;;;;;;0.60;0.60;;;;;;;3.47;100.00;98888.19;5046674;28;20220;-67
2023/01/28 05:42:44;;;;;;;0.63;0.63;;;;;;;3.49;100.00;98896.63;5038432;28;20584;-67
2023/01/28 05:45:11;;;;;;;1.10;1.10;;;;;;;3.09;100.00;98831.16;5045540;28;20576;-67
2023/01/28 05:47:38;;;;;;;0.50;0.50;;;;;;;3.39;100.00;98882.38;5044194;28;20201;-66
2023/01/28 05:50:08;;;;;;;0.50;0.50;;;;;;;3.49;100.00;98897.44;5045155;28;20722;-67
2023/01/28 05:52:35;;;;;;;0.50;0.50;;;;;;;3.50;100.00;98903.34;5047923;28;20197;-67
2023/01/28 05:55:03;;;;;;;0.50;0.50;;;;;;;3.54;100.00;98910.06;5048448;28;20254;-67
2023/01/28 05:57:30;;;;;;;0.60;0.60;;;;;;;3.55;100.00;98906.69;5049899;28;20680;-67
2023/01/28 05:59:56;;;;;;;0.60;0.60;;;;;;;3.61;100.00;98912.53;5051174;28;20311;-68
2023/01/28 06:02:23;;;;;;;0.50;0.50;;;;;;;3.59;100.00;98918.44;5049774;28;20534;-67
2023/01/28 06:04:50;;;;;;;0.50;0.50;;;;;;;3.63;100.00;98925.19;5050930;28;20228;-67
2023/01/28 06:07:19;;;;;;;0.50;0.50;;;;;;;3.56;100.00;98918.50;5047158;28;20200;-67
2023/01/28 06:09:47;;;;;;;0.60;0.60;;;;;;;3.65;100.00;98933.63;5051016;28;20200;-67
2023/01/28 06:12:14;;;;;;;0.40;0.40;;;;;;;3.67;100.00;98929.38;5050838;28;20200;-67
2023/01/28 06:14:41;;;;;;;0.60;0.60;;;;;;;3.65;100.00;98939.50;5047532;28;20687;-68
2023/01/28 06:17:08;;;;;;;0.50;0.50;;;;;;;3.66;100.00;98941.19;5050605;28;20204;-66
2023/01/28 06:19:35;;;;;;;0.50;0.50;;;;;;;3.72;100.00;98945.34;5050871;28;20209;-67
2023/01/28 06:22:02;;;;;;;0.80;0.80;;;;;;;3.76;100.00;98952.09;5050660;28;20246;-68
2023/01/28 06:24:30;;;;;;;0.60;0.60;;;;;;;3.78;100.00;98954.63;5048838;28;20203;-67
2023/01/28 06:26:57;;;;;;;0.53;0.53;;;;;;;3.76;100.00;98957.16;5049485;28;20197;-68
2023/01/28 06:29:24;;;;;;;0.50;0.50;;;;;;;3.74;100.00;98953.81;5050283;28;20212;-67
2023/01/28 06:31:51;;;;;;;0.50;0.50;;;;;;;3.75;100.00;98960.53;5050705;28;20576;-67
2023/01/28 06:34:17;;;;;;;0.60;0.60;;;;;;;3.77;100.00;98963.91;5049780;28;20205;-66
2023/01/28 06:36:44;;;;;;;0.70;0.70;;;;;;;3.75;100.00;98970.69;5050665;28;20611;-67
2023/01/28 06:39:12;;;;;;;0.83;0.83;;;;;;;3.75;100.00;98974.94;5050407;28;20216;-67
2023/01/28 06:41:40;;;;;;;0.63;0.63;;;;;;;3.70;100.00;98967.34;5044575;28;20718;-67
2023/01/28 06:44:07;;;;;;;0.50;0.50;;;;;;;3.80;100.00;98979.09;5050251;28;20197;-67
2023/01/28 06:46:33;;;;;;;0.70;0.70;;;;;;;3.80;100.00;98973.19;5049054;28;20660;-67
2023/01/28 06:49:00;;;;;;;0.60;0.60;;;;;;;3.84;100.00;98993.44;5050101;28;20189;-67
2023/01/28 06:51:27;;;;;;;0.53;0.53;;;;;;;3.90;100.00;98995.91;5048769;28;20247;-67
2023/01/28 06:53:54;;;;;;;0.50;0.50;;;;;;;3.92;100.00;98994.19;5047664;28;20664;-68
2023/01/28 06:56:21;;;;;;;0.60;0.60;;;;;;;3.89;100.00;98999.28;5046482;28;20262;-67
2023/01/28 06:58:49;;;;;;;0.60;0.60;;;;;;;3.93;100.00;99000.94;5048015;28;20211;-67
2023/01/28 07:01:15;;;;;;;0.60;0.60;;;;;;;4.00;100.00;99002.56;5046612;28;20292;-68
2023/01/28 07:03:42;;;;;;;0.60;0.60;;;;;;;4.07;100.00;99009.22;5047439;28;20240;-67
2023/01/28 07:06:09;;;;;;;0.60;0.60;;;;;;;4.09;100.00;99016.84;5047600;28;20274;-68
2023/01/28 07:08:36;;;;;;;0.40;0.40;;;;;;;4.14;100.00;99015.06;5044946;28;20254;-68
2023/01/28 07:11:04;;;;;;;0.57;0.57;;;;;;;4.09;100.00;98999.06;5046312;28;20199;-68
2023/01/28 07:13:31;;;;;;;0.60;0.60;;;;;;;4.16;100.00;99011.69;5046012;28;20204;-68
2023/01/28 07:15:59;;;;;;;0.50;0.50;;;;;;;4.26;100.00;99025.13;5049009;28;20208;-68
2023/01/28 07:18:26;;;;;;;0.70;0.70;;;;;;;4.34;100.00;99022.47;5047259;28;20205;-68
2023/01/28 07:20:53;;;;;;;0.50;0.50;;;;;;;4.42;100.00;99026.63;5044213;28;20250;-67
2023/01/28 07:23:19;;;;;;;0.60;0.60;;;;;;;4.48;100.00;99029.09;5046814;28;20205;-68
2023/01/28 07:25:46;;;;;;;0.83;0.83;;;;;;;4.49;100.00;99032.47;5046482;28;20208;-67
2023/01/28 07:28:13;;;;;;;0.57;0.57;;;;;;;4.51;100.00;99035.81;5046518;28;20205;-68
2023/01/28 07:30:40;;;;;;;0.40;0.40;;;;;;;4.61;100.00;99034.84;5044655;28;20205;-68
2023/01/28 07:33:08;;;;;;;0.70;0.70;;;;;;;4.67;100.00;99038.16;5044483;28;20428;-67
2023/01/28 07:35:34;;;;;;;0.60;0.60;;;;;;;4.78;100.00;99040.56;5045195;28;20205;-68
2023/01/28 07:38:01;;;;;;;0.50;0.50;;;;;;;4.84;100.00;99040.47;5044024;28;20213;-68
2023/01/28 07:40:29;;;;;;;0.50;0.50;;;;;;;4.87;100.00;99040.44;5045369;28;20761;-68
2023/01/28 07:42:56;;;;;;;0.60;0.60;;;;;;;4.97;100.00;99042.00;5048000;28;20208;-67
2023/01/28 07:45:23;;;;;;;0.50;0.50;;;;;;;4.96;100.00;99045.41;5045007;28;20209;-67
2023/01/28 07:47:57;;;;;;;0.77;0.77;;;;;;;5.06;100.00;99056.28;5048077;28;20205;-69
2023/01/28 07:50:27;;;;;;;0.60;0.60;;;;;;;5.06;100.00;99057.13;5046954;28;20569;-68
2023/01/28 07:52:54;;;;;;;0.70;0.70;;;;;;;5.11;100.00;99055.34;5048542;28;20250;-68
2023/01/28 07:55:21;;;;;;;0.50;0.50;;;;;;;5.19;100.00;99058.63;5049443;28;20254;-68
2023/01/28 07:57:50;;;;;;;0.73;0.73;;;;;;;5.27;100.00;99066.97;5046630;28;20204;-68
2023/01/28 08:00:17;;;;;;;0.50;0.50;;;;;;;5.28;100.00;99061.03;5047911;28;20225;-67
2023/01/28 08:02:46;;;;;;;0.50;0.50;;;;;;;5.39;98.65;99065.13;5045615;28;20212;-67
2023/01/28 08:05:16;;;;;;;0.60;0.60;;;;;;;5.41;98.33;99068.47;5047276;28;20197;-67
2023/01/28 08:07:45;;;;;;;0.60;0.60;;;;;;;5.46;97.62;99072.63;5047600;28;20640;-68
2023/01/28 08:10:12;;;;;;;0.53;0.53;;;;;;;5.43;96.89;99070.13;5047832;28;20584;-67
2023/01/28 08:12:39;;;;;;;0.50;0.50;;;;;;;5.50;97.12;99068.31;5052642;28;20263;-68
2023/01/28 08:15:07;;;;;;;0.50;0.50;;;;;;;5.55;97.56;99072.50;5052824;28;20197;-68
2023/01/28 08:17:34;;;;;;;0.50;0.50;;;;;;;5.46;97.34;99061.63;5050325;28;20205;-68
2023/01/28 08:20:01;;;;;;;0.60;0.60;;;;;;;5.76;97.24;99084.03;5049147;28;20279;-68
2023/01/28 08:22:29;;;;;;;0.50;0.50;;;;;;;5.93;95.53;99078.69;5050015;28;20201;-68
2023/01/28 08:24:57;;;;;;;0.50;0.50;;;;;;;5.99;94.91;99059.09;5046858;28;20208;-68
2023/01/28 08:27:24;;;;;;;0.50;0.50;;;;;;;6.28;94.85;99076.38;5049354;28;20252;-67
2023/01/28 08:29:51;;;;;;;0.47;0.47;;;;;;;6.46;94.71;99085.41;5050836;28;20192;-68
2023/01/28 08:32:17;;;;;;;0.40;0.40;;;;;;;6.62;94.61;99086.78;5049743;28;20208;-68
2023/01/28 08:34:44;;;;;;;0.90;0.90;;;;;;;6.76;92.04;99095.81;5047987;28;20201;-68
2023/01/28 08:37:11;;;;;;;0.50;0.50;;;;;;;6.88;91.04;99099.84;5051326;28;20451;-63
2023/01/28 08:39:38;;;;;;;0.70;0.70;;;;;;;7.03;91.28;99099.53;5051600;28;20282;-64
2023/01/28 08:42:07;;;;;;;0.60;0.60;;;;;;;6.95;91.60;99096.28;5053145;28;20695;-64
2023/01/28 08:44:34;;;;;;;0.40;0.40;;;;;;;7.10;92.72;99111.28;5052841;28;20203;-64
2023/01/28 08:47:01;;;;;;;0.50;0.50;;;;;;;7.22;94.26;99111.03;5052893;28;20193;-64
2023/01/28 08:49:27;;;;;;;0.70;0.70;;;;;;;7.34;92.59;99105.66;5052603;28;20738;-63
2023/01/28 08:51:54;;;;;;;0.67;0.67;;;;;;;7.34;92.29;99105.66;5052148;28;20634;-64
2023/01/28 08:54:21;;;;;;;0.53;0.53;;;;;;;7.42;91.59;99107.19;5050675;28;20197;-64
2023/01/28 08:56:50;;;;;;;0.70;0.70;;;;;;;7.40;90.66;99110.59;5051914;28;20258;-64
2023/01/28 08:59:18;;;;;;;0.40;0.40;;;;;;;7.32;91.35;99116.75;5052051;28;20196;-64
2023/01/28 09:01:45;;;;;;;0.70;0.70;;;;;;;7.35;90.27;99121.78;5051217;28;20193;-63
2023/01/28 09:04:12;;;;;;;0.53;0.53;;;;;;;7.39;90.91;99113.22;5051442;28;20228;-64
2023/01/28 09:06:39;;;;;;;0.50;0.50;;;;;;;7.54;88.71;99117.97;5052227;28;20200;-63
2023/01/28 09:09:05;;;;;;;0.40;0.40;;;;;;;7.72;89.95;99121.81;5052054;28;20227;-64
2023/01/28 09:11:32;;;;;;;0.50;0.50;;;;;;;7.75;88.68;99111.53;5052341;28;20554;-64
2023/01/28 09:13:59;;;;;;;0.50;0.50;;;;;;;8.05;89.54;99123.56;5052211;28;20657;-64
2023/01/28 09:16:27;;;;;;;0.70;0.70;;;;;;;8.08;90.17;99109.91;5052170;28;20201;-64
2023/01/28 09:18:54;;;;;;;0.50;0.50;;;;;;;8.37;88.80;99117.66;5052126;28;20215;-64
2023/01/28 09:21:21;;;;;;;0.50;0.50;;;;;;;8.44;86.31;99130.25;5051490;28;20216;-64
2023/01/28 09:23:47;;;;;;;0.60;0.60;;;;;;;8.52;86.92;99116.44;5051958;28;20635;-64
2023/01/28 09:26:14;;;;;;;0.60;0.60;;;;;;;8.60;87.21;99114.50;5051871;28;20299;-64
2023/01/28 09:28:41;;;;;;;0.53;0.53;;;;;;;8.60;84.89;99129.84;5051984;28;20255;-64
2023/01/28 09:31:11;;;;;;;1.17;1.17;;;;;;;8.59;85.81;99107.75;5049403;28;20635;-64
2023/01/28 09:33:40;;;;;;;0.50;0.50;;;;;;;8.56;84.90;99097.59;5050547;28;20193;-64
2023/01/28 09:36:10;;;;;;;0.40;0.40;;;;;;;8.66;86.43;99122.03;5049368;28;20216;-64
2023/01/28 09:38:36;;;;;;;0.50;0.50;;;;;;;8.50;83.44;99124.13;5051805;28;20201;-64
2023/01/28 09:41:17;;;;;;;0.57;0.57;;;;;;;8.37;84.65;99126.16;5051420;28;20216;-64
2023/01/28 09:44:00;;;;;;;1.03;0.90;;;;;;;8.24;86.99;99109.44;5051566;28;20192;-64
2023/01/28 09:46:32;;;;;;;0.50;0.50;;;;;;;8.32;86.18;99133.13;5051570;28;20247;-64
2023/01/28 09:49:04;;;;;;;0.50;0.50;;;;;;;8.42;86.02;99137.13;5051517;28;20635;-64
2023/01/28 09:51:36;;;;;;;0.50;0.50;;;;;;;8.38;84.77;99138.06;5051550;28;20201;-64
2023/01/28 09:54:07;;;;;;;0.50;0.50;;;;;;;8.46;83.80;99132.78;5049911;28;20558;-64
2023/01/28 09:56:39;;;;;;;0.50;0.50;;;;;;;8.59;85.54;99133.28;5051629;28;20695;-64
2023/01/28 09:59:18;;;;;;;0.60;0.60;;;;;;;8.74;85.55;99125.22;5051218;28;20204;-64
2023/01/28 10:01:50;;;;;;;0.50;0.50;;;;;;;8.66;85.10;99124.59;5051275;28;20240;-64
2023/01/28 10:04:33;;;;;;;0.40;0.40;;;;;;;8.69;86.43;99129.63;5050914;28;20224;-64
2023/01/28 10:07:13;;;;;;;0.50;0.50;;;;;;;8.67;83.97;99127.09;5050612;28;20209;-63
2023/01/28 10:09:48;;;;;;;0.50;0.50;;;;;;;8.68;85.85;99123.66;5050327;28;20206;-64
2023/01/28 10:12:31;;;;;;;0.40;0.40;;;;;;;8.71;86.72;99125.28;5050958;28;20215;-64
2023/01/28 10:15:20;;;;;;;0.60;0.60;;;;;;;8.70;85.72;99121.06;5050974;28;20278;-64
2023/01/28 10:17:50;;;;;;;0.70;0.70;;;;;;;8.57;85.44;99129.91;5051142;28;20635;-64
2023/01/28 10:20:27;;;;;;;0.40;0.40;;;;;;;8.48;86.65;99125.06;5050879;28;20216;-64
2023/01/28 10:22:58;;;;;;;0.50;0.50;;;;;;;8.48;87.70;99125.06;5050707;28;20852;-72
2023/01/28 10:25:29;;;;;;;0.60;0.60;;;;;;;8.46;88.27;99132.78;5045556;28;20897;-66
2023/01/28 10:27:56;;;;;;;0.60;0.60;;;;;;;8.65;86.21;99135.69;5044798;28;20209;-67
2023/01/28 10:30:25;;;;;;;0.57;0.57;;;;;;;8.62;84.88;99135.78;5048296;28;20200;-67
2023/01/28 10:32:55;;;;;;;0.60;0.60;;;;;;;8.59;84.29;99133.28;5042891;28;20282;-66
2023/01/28 10:35:24;;;;;;;0.53;0.53;;;;;;;8.53;84.59;99133.47;5045142;28;20262;-66
2023/01/28 10:37:53;;;;;;;0.40;0.40;;;;;;;8.53;85.71;99133.47;5045138;28;20331;-66
2023/01/28 10:40:20;;;;;;;0.50;0.50;;;;;;;8.56;85.43;99133.38;5044515;28;20213;-67
2023/01/28 10:42:46;;;;;;;0.50;0.50;;;;;;;8.51;85.63;99135.19;5043715;28;20270;-66
2023/01/28 10:45:21;;;;;;;0.50;0.50;;;;;;;8.38;84.66;99130.41;5046221;28;20684;-66
2023/01/28 10:47:52;;;;;;;0.50;0.50;;;;;;;8.38;85.55;99134.69;5043276;28;20203;-67
2023/01/28 10:50:24;;;;;;;0.53;0.53;;;;;;;8.37;86.13;99131.28;5047458;28;20703;-66
2023/01/28 10:52:56;;;;;;;0.60;0.60;;;;;;;8.41;87.66;99119.28;5044648;28;20205;-66
2023/01/28 10:55:24;;;;;;;0.50;0.50;;;;;;;8.36;86.40;99129.63;5044510;28;20572;-67
2023/01/28 10:57:51;;;;;;;0.60;0.60;;;;;;;8.26;86.83;99125.59;5044656;28;20943;-67
2023/01/28 11:00:30;;;;;;;0.50;0.50;;;;;;;8.37;88.56;99126.16;5044641;28;20228;-67
2023/01/28 11:02:57;;;;;;;0.60;0.60;;;;;;;8.37;88.59;99130.44;5045077;28;20617;-67
2023/01/28 11:05:28;;;;;;;0.50;0.50;;;;;;;8.30;87.24;99127.19;5045068;28;20633;-67
2023/01/28 11:08:12;;;;;;;0.50;0.50;;;;;;;8.25;87.65;99121.34;5044529;28;20554;-67
2023/01/28 11:10:39;;;;;;;0.50;0.50;;;;;;;8.29;88.12;99130.66;5047054;28;20196;-67
2023/01/28 11:13:14;;;;;;;0.50;0.50;;;;;;;8.27;87.29;99131.53;5047592;28;20259;-67
2023/01/28 11:15:47;;;;;;;0.50;0.50;;;;;;;8.16;86.57;99133.50;5045598;28;20253;-67
2023/01/28 11:18:19;;;;;;;0.40;0.40;;;;;;;8.23;87.68;99123.13;5046769;28;20201;-61
2023/01/28 11:20:55;;;;;;;0.50;0.50;;;;;;;8.20;86.64;99130.84;5045648;28;20231;-61
2023/01/28 11:23:24;;;;;;;0.40;0.40;;;;;;;8.17;87.53;99122.44;5043121;28;20204;-61
2023/01/28 11:26:02;;;;;;;0.40;0.40;;;;;;;8.13;87.15;99126.78;5042879;28;20215;-61
2023/01/28 11:28:28;;;;;;;0.40;0.40;;;;;;;8.04;87.75;99124.44;5043147;28;20196;-61
2023/01/28 11:30:58;;;;;;;0.50;0.50;;;;;;;8.05;87.95;99126.09;5048414;28;20610;-61
2023/01/28 11:33:31;;;;;;;0.40;0.40;;;;;;;8.04;88.75;99129.56;5048956;28;20697;-61
2023/01/28 11:36:07;;;;;;;0.50;0.50;;;;;;;7.97;90.19;99127.19;5049167;28;20204;-60
2023/01/28 11:38:34;;;;;;;0.50;0.50;;;;;;;7.92;91.10;99122.16;5049070;28;20204;-61
2023/01/28 11:41:01;;;;;;;0.57;0.57;;;;;;;7.91;91.84;99123.91;5045493;28;20255;-61
2023/01/28 11:43:30;;;;;;;0.50;0.50;;;;;;;7.82;92.02;99118.16;5048011;28;20204;-61
2023/01/28 11:46:05;;;;;;;0.40;0.40;;;;;;;7.83;91.70;99125.78;5051173;28;20227;-61
2023/01/28 11:48:41;;;;;;;0.40;0.40;;;;;;;7.84;92.27;99126.63;5049181;28;20205;-61
2023/01/28 11:51:24;;;;;;;0.50;0.50;;;;;;;7.85;93.73;99123.22;5053281;28;20201;-61
2023/01/28 11:54:10;;;;;;;0.60;0.60;;;;;;;7.78;91.67;99119.13;5052345;28;20706;-61
2023/01/28 11:56:53;;;;;;;0.50;0.50;;;;;;;7.75;92.36;99121.75;5045231;28;20562;-61
2023/01/28 11:59:36;;;;;;;0.50;0.50;;;;;;;7.64;93.86;99124.53;5049471;28;20266;-61
2023/01/28 12:02:12;;;;;;;0.63;0.63;;;;;;;7.59;95.29;99112.78;5051229;28;20592;-60
2023/01/28 12:04:57;;;;;;;0.40;0.40;;;;;;;7.58;95.19;99111.09;5051626;28;20229;-61
2023/01/28 12:07:41;;;;;;;0.50;0.50;;;;;;;7.65;96.36;99125.38;5052165;28;20266;-60
2023/01/28 12:10:19;;;;;;;0.63;0.63;;;;;;;7.66;96.21;99127.03;5051651;28;20665;-61
2023/01/28 12:13:04;;;;;;;0.50;0.50;;;;;;;7.68;95.99;99130.41;5052093;28;20565;-61
2023/01/28 12:15:58;;;;;;;0.60;0.60;;;;;;;7.72;95.95;99137.13;5050649;28;20209;-61
2023/01/28 12:18:49;;;;;;;0.60;0.60;;;;;;;7.76;95.48;99129.34;5049971;28;20208;-60